Time;durP1;ratioP1;P1;durP2;ratioP2;P2;SDS_P1;SDS_P2;PMS_P1;PMS_P2;Temp;Humidity;BMP_temperature;BMP_pressure;BME280_temperature;BME280_humidity;BME280_pressure;Samples;Min_cycle;Max_cycle;Signal;HPM_P1;HPM_P2
2023/05/11 00:01:08;;;;;;;3.22;0.95;;;11.70;99.90;;;10.90;100.00;101486.63;4120188;28;20027;-71
2023/05/11 00:03:09;;;;;;;3.05;0.93;;;11.60;99.90;;;10.83;100.00;101489.97;4135765;28;20093;-71
2023/05/11 00:05:10;;;;;;;2.80;0.88;;;11.60;99.90;;;10.76;100.00;101487.06;4118988;28;20421;-71
2023/05/11 00:07:11;;;;;;;2.00;0.70;;;11.50;99.90;;;10.77;100.00;101493.16;4120560;28;20027;-71
2023/05/11 00:09:12;;;;;;;3.63;0.90;;;11.50;99.90;;;10.68;100.00;101486.91;4120437;28;20520;-71
2023/05/11 00:11:13;;;;;;;4.05;1.10;;;11.50;99.90;;;10.71;100.00;101494.56;4135596;28;20094;-72
2023/05/11 00:13:14;;;;;;;5.45;2.03;;;11.50;99.90;;;10.62;100.00;101492.75;4119245;28;20027;-71
2023/05/11 00:15:15;;;;;;;4.20;1.20;;;11.40;99.90;;;10.54;100.00;101480.22;4119068;28;20030;-71
2023/05/11 00:17:18;;;;;;;4.57;1.50;;;11.40;99.90;;;10.53;100.00;101470.66;4120393;28;20027;-71
2023/05/11 00:19:19;;;;;;;4.30;1.20;;;11.40;99.90;;;10.60;100.00;101478.88;4120081;28;20022;-71
2023/05/11 00:21:21;;;;;;;5.25;1.38;;;11.40;99.90;;;10.59;100.00;101487.75;4135206;28;20502;-71
2023/05/11 00:23:22;;;;;;;4.10;0.90;;;11.30;99.90;;;10.53;100.00;101483.03;4120371;28;20030;-71
2023/05/11 00:25:23;;;;;;;3.58;0.80;;;11.30;99.90;;;10.46;100.00;101476.63;4120164;28;20038;-71
2023/05/11 00:27:24;;;;;;;3.40;0.80;;;11.30;99.90;;;10.47;100.00;101483.56;4135171;28;20044;-71
2023/05/11 00:29:25;;;;;;;4.30;1.10;;;11.30;99.90;;;10.50;100.00;101484.13;4118873;28;20046;-71
2023/05/11 00:31:26;;;;;;;3.88;1.13;;;11.20;99.90;;;10.48;100.00;101487.88;4134923;28;20026;-71
2023/05/11 00:33:27;;;;;;;3.50;1.00;;;11.30;99.90;;;10.44;100.00;101479.41;4118187;28;20027;-71
2023/05/11 00:35:27;;;;;;;4.97;1.17;;;11.20;99.90;;;10.47;100.00;101480.94;4118734;28;20034;-71
2023/05/11 00:37:28;;;;;;;4.47;1.30;;;11.20;99.90;;;10.50;100.00;101489.41;4134950;28;20036;-71
2023/05/11 00:39:29;;;;;;;5.90;1.60;;;11.20;99.90;;;10.45;100.00;101475.78;4119825;28;20019;-71
2023/05/11 00:41:30;;;;;;;4.97;0.82;;;11.20;99.90;;;10.48;100.00;101482.59;4102887;29;20063;-71
2023/05/11 00:43:31;;;;;;;6.57;1.38;;;11.20;99.90;;;10.51;100.00;101487.59;4134631;28;20041;-71
2023/05/11 00:45:32;;;;;;;2.45;0.80;;;11.30;99.90;;;10.51;100.00;101480.50;4118719;28;20506;-71
2023/05/11 00:47:33;;;;;;;3.83;1.65;;;11.20;99.90;;;10.51;100.00;101479.69;4134936;28;20576;-71
2023/05/11 00:49:34;;;;;;;3.92;1.00;;;11.20;99.90;;;10.50;100.00;101480.66;4118640;28;20031;-71
2023/05/11 00:51:35;;;;;;;3.17;1.90;;;11.20;99.90;;;10.49;100.00;101465.78;4118736;28;20039;-71
2023/05/11 00:53:36;;;;;;;2.75;0.90;;;11.20;99.90;;;10.48;100.00;101469.41;4134756;28;20034;-71
2023/05/11 00:55:37;;;;;;;3.80;0.90;;;11.20;99.90;;;10.46;100.00;101466.06;4134858;28;20019;-71
2023/05/11 00:57:38;;;;;;;2.38;0.88;;;11.20;99.90;;;10.45;100.00;101470.50;4109955;28;20066;-71
2023/05/11 00:59:40;;;;;;;3.70;0.95;;;11.20;99.90;;;10.39;100.00;101460.50;4119985;28;20027;-71
2023/05/11 01:01:41;;;;;;;5.53;1.13;;;11.10;99.90;;;10.31;100.00;101462.16;4118786;28;20470;-71
2023/05/11 01:03:42;;;;;;;3.65;0.88;;;11.10;99.90;;;10.29;100.00;101466.75;4118861;28;20030;-71
2023/05/11 01:05:53;;;;;;;3.33;1.02;;;11.00;99.90;;;10.25;100.00;101465.34;4118355;28;20415;-71
2023/05/11 01:08:11;;;;;;;3.13;0.82;;;11.00;99.90;;;10.20;100.00;101459.66;4103086;28;20027;-71
2023/05/11 01:11:09;;;;;;;2.90;1.10;;;10.90;99.90;;;10.16;100.00;101460.88;4108102;28;20402;-71
2023/05/11 01:13:13;;;;;;;3.80;1.45;;;10.90;99.90;;;10.15;100.00;101464.50;4102503;28;20479;-71
2023/05/11 01:15:55;;;;;;;6.53;0.98;;;10.90;99.90;;;10.16;100.00;101468.78;4137880;28;20121;-71
2023/05/11 01:18:37;;;;;;;1.77;0.90;;;10.90;99.90;;;10.18;100.00;101466.88;4121715;28;20074;-71
2023/05/11 01:20:38;;;;;;;3.72;1.20;;;10.90;99.90;;;10.20;100.00;101470.19;4122886;28;20447;-71
2023/05/11 01:23:09;;;;;;;4.32;1.55;;;10.90;99.90;;;10.20;100.00;101457.00;4122952;28;20057;-71
2023/05/11 01:25:37;;;;;;;4.47;1.27;;;11.00;99.90;;;10.27;100.00;101460.78;4136683;28;20529;-71
2023/05/11 01:28:14;;;;;;;1.80;0.90;;;11.00;99.90;;;10.32;100.00;101458.56;4121536;28;20034;-71
2023/05/11 01:31:09;;;;;;;3.92;1.00;;;11.00;99.90;;;10.35;100.00;101455.66;4138255;28;20624;-71
2023/05/11 01:33:13;;;;;;;5.37;1.77;;;11.10;99.90;;;10.32;100.00;101448.84;4122938;28;20106;-71
2023/05/11 01:35:19;;;;;;;3.42;0.93;;;11.10;99.90;;;10.35;100.00;101448.56;4137307;28;20026;-71
2023/05/11 01:37:26;;;;;;;3.05;1.30;;;11.10;99.90;;;10.33;100.00;101441.78;4121734;28;20109;-71
2023/05/11 01:39:36;;;;;;;4.13;1.00;;;11.10;99.90;;;10.38;100.00;101444.81;4137969;28;20585;-71
2023/05/11 01:41:40;;;;;;;3.80;1.15;;;11.10;99.90;;;10.36;100.00;101454.69;4137573;28;20073;-71
2023/05/11 01:43:46;;;;;;;4.45;0.90;;;11.10;99.90;;;10.32;100.00;101445.38;4105582;28;20058;-71
2023/05/11 01:45:49;;;;;;;3.72;1.17;;;11.00;99.90;;;10.31;100.00;101451.59;4135134;28;20548;-71
2023/05/11 01:47:51;;;;;;;3.38;1.02;;;11.00;99.90;;;10.23;100.00;101436.47;4121342;28;20506;-71
2023/05/11 01:49:53;;;;;;;3.58;1.38;;;11.00;99.90;;;10.28;100.00;101438.69;4137118;28;20027;-71
2023/05/11 01:51:56;;;;;;;6.05;1.70;;;11.00;99.90;;;10.25;100.00;101441.59;4121187;28;20035;-71
2023/05/11 01:53:58;;;;;;;3.92;1.10;;;11.00;99.90;;;10.23;100.00;101439.13;4137590;28;20073;-71
2023/05/11 01:56:01;;;;;;;7.90;1.02;;;11.00;99.90;;;10.18;100.00;101441.34;4122352;28;20023;-71
2023/05/11 01:58:05;;;;;;;3.92;1.20;;;11.00;99.90;;;10.20;100.00;101443.81;4137351;28;20057;-71
2023/05/11 02:00:08;;;;;;;4.47;1.45;;;10.90;99.90;;;10.18;100.00;101443.13;4137084;28;20113;-71
2023/05/11 02:02:11;;;;;;;3.63;1.50;;;10.90;99.90;;;10.14;100.00;101442.56;4137495;28;20034;-71
2023/05/11 02:04:14;;;;;;;3.00;0.85;;;10.90;99.90;;;10.09;100.00;101436.00;4122091;28;20052;-74
2023/05/11 02:06:18;;;;;;;2.40;1.00;;;10.90;99.90;;;10.06;100.00;101442.41;4105091;28;20030;-71
2023/05/11 02:08:21;;;;;;;4.78;1.33;;;10.80;99.90;;;10.03;100.00;101440.84;4121062;28;20042;-72
2023/05/11 02:10:25;;;;;;;7.80;2.10;;;10.80;99.90;;;10.01;100.00;101441.94;4137563;28;20109;-71
2023/05/11 02:12:27;;;;;;;3.95;1.10;;;10.80;99.90;;;9.97;100.00;101438.75;4137158;28;20042;-71
2023/05/11 02:14:32;;;;;;;4.20;1.10;;;10.70;99.90;;;9.99;100.00;101443.91;4137232;28;20014;-71
2023/05/11 02:16:34;;;;;;;4.22;1.08;;;10.70;99.90;;;9.95;100.00;101443.31;4120903;28;20026;-71
2023/05/11 02:18:39;;;;;;;4.60;1.10;;;10.70;99.90;;;9.92;100.00;101438.31;4136931;28;20116;-71
2023/05/11 02:20:46;;;;;;;3.70;0.80;;;10.70;99.90;;;9.90;100.00;101442.91;4136680;28;20081;-71
2023/05/11 02:22:48;;;;;;;7.35;2.00;;;10.60;99.90;;;9.87;100.00;101440.53;4120881;28;20030;-71
2023/05/11 02:24:49;;;;;;;8.38;1.27;;;10.60;99.90;;;9.82;100.00;101434.84;4120447;28;20418;-71
2023/05/11 02:26:50;;;;;;;4.50;1.42;;;10.60;99.90;;;9.77;100.00;101441.47;4122294;28;20046;-71
2023/05/11 02:28:51;;;;;;;4.72;1.20;;;10.60;99.90;;;9.76;100.00;101440.66;4136890;28;20033;-71
2023/05/11 02:30:59;;;;;;;4.43;1.15;;;10.50;99.90;;;9.76;100.00;101442.44;4136709;28;20109;-71
2023/05/11 02:33:06;;;;;;;3.33;1.20;;;10.50;99.90;;;9.74;100.00;101447.84;4136676;28;20030;-71
2023/05/11 02:35:19;;;;;;;2.75;1.00;;;10.50;99.90;;;9.73;100.00;101445.34;4136585;28;20129;-71
2023/05/11 02:37:24;;;;;;;4.80;1.83;;;10.50;99.90;;;9.68;100.00;101439.63;4136402;28;20457;-71
2023/05/11 02:39:34;;;;;;;6.80;1.60;;;10.40;99.90;;;9.74;100.00;101445.19;4121963;28;20395;-71
2023/05/11 02:41:42;;;;;;;5.40;1.52;;;10.40;99.90;;;9.77;100.00;101444.94;4136398;28;20038;-71
2023/05/11 02:43:53;;;;;;;4.50;1.10;;;10.50;99.90;;;9.75;100.00;101436.34;4120038;28;20050;-71
2023/05/11 02:46:05;;;;;;;7.65;1.45;;;10.50;99.90;;;9.82;100.00;101442.75;4136640;28;20430;-71
2023/05/11 02:48:11;;;;;;;5.63;1.52;;;10.50;99.90;;;9.83;100.00;101436.50;4136034;28;20033;-71
2023/05/11 02:50:13;;;;;;;4.70;2.15;;;10.60;99.90;;;9.86;100.00;101436.22;4121346;28;20041;-72
2023/05/11 02:52:16;;;;;;;3.92;1.92;;;10.60;99.90;;;9.83;100.00;101430.38;4121700;28;20093;-71
2023/05/11 02:54:18;;;;;;;5.53;2.05;;;10.60;99.90;;;9.89;100.00;101435.13;4120266;28;20034;-71
2023/05/11 02:56:20;;;;;;;9.77;2.38;;;10.60;99.90;;;9.88;100.00;101429.03;4136499;28;20026;-71
2023/05/11 02:58:22;;;;;;;2.38;1.25;;;10.60;99.90;;;9.89;100.00;101424.56;4136272;28;20026;-71
2023/05/11 03:00:23;;;;;;;5.82;1.40;;;10.60;99.90;;;9.84;100.00;101427.63;4136546;28;20022;-71
2023/05/11 03:02:24;;;;;;;2.05;0.90;;;10.60;99.90;;;9.84;100.00;101425.00;4136438;28;20037;-71
2023/05/11 03:04:25;;;;;;;3.45;1.27;;;10.60;99.90;;;9.88;100.00;101434.31;4119996;28;20034;-71
2023/05/11 03:06:26;;;;;;;3.90;1.35;;;10.60;99.90;;;9.91;100.00;101434.03;4120291;28;20038;-71
2023/05/11 03:08:27;;;;;;;5.78;1.40;;;10.60;99.90;;;9.90;100.00;101434.16;4121257;28;20031;-71
2023/05/11 03:10:28;;;;;;;3.05;1.50;;;10.60;99.90;;;9.88;100.00;101423.78;4120069;28;20030;-71
2023/05/11 03:12:34;;;;;;;3.78;1.30;;;10.60;99.90;;;9.86;100.00;101420.41;4119945;28;20077;-71
2023/05/11 03:14:35;;;;;;;7.28;1.50;;;10.60;99.90;;;9.89;100.00;101422.78;4135745;28;20034;-71
2023/05/11 03:16:37;;;;;;;7.18;2.45;;;10.60;99.90;;;9.90;100.00;101427.09;4136074;28;20022;-71
2023/05/11 03:18:39;;;;;;;4.53;1.75;;;10.60;99.90;;;9.90;100.00;101421.81;4121321;28;20386;-71
2023/05/11 03:20:42;;;;;;;5.45;1.80;;;10.60;99.90;;;9.90;100.00;101418.34;4136076;28;20064;-71
2023/05/11 03:22:45;;;;;;;4.53;2.35;;;10.60;99.90;;;9.91;100.00;101422.66;4136251;28;20038;-71
2023/05/11 03:24:47;;;;;;;5.25;1.88;;;10.60;99.90;;;9.93;100.00;101423.34;4121025;28;20376;-71
2023/05/11 03:26:50;;;;;;;5.32;1.30;;;10.60;99.90;;;9.93;100.00;101412.81;4136029;28;20029;-71
2023/05/11 03:28:52;;;;;;;4.50;1.17;;;10.70;99.90;;;9.96;100.00;101412.53;4135980;28;20033;-71
2023/05/11 03:30:53;;;;;;;6.07;1.92;;;10.70;99.90;;;9.95;100.00;101409.06;4135738;28;20136;-71
2023/05/11 03:32:54;;;;;;;5.40;1.48;;;10.70;99.90;;;9.96;100.00;101413.38;4136028;28;20030;-71
2023/05/11 03:34:55;;;;;;;5.18;2.17;;;10.70;99.90;;;9.96;100.00;101415.19;4135606;28;20053;-71
2023/05/11 03:36:58;;;;;;;4.63;1.60;;;10.70;99.90;;;9.94;100.00;101412.69;4118906;28;20061;-71
2023/05/11 03:39:02;;;;;;;5.85;2.45;;;10.70;99.90;;;9.96;100.00;101421.28;4135667;28;20026;-71
2023/05/11 03:41:03;;;;;;;6.90;1.73;;;10.70;99.90;;;9.92;100.00;101413.75;4136014;28;20029;-71
2023/05/11 03:43:07;;;;;;;6.55;1.40;;;10.70;99.90;;;9.86;100.00;101403.75;4119552;28;20517;-71
2023/05/11 03:45:12;;;;;;;3.92;1.27;;;10.70;99.90;;;9.94;100.00;101417.13;4120642;28;20047;-71
2023/05/11 03:47:16;;;;;;;6.45;2.00;;;10.70;99.90;;;9.94;100.00;101420.59;4135336;28;20038;-71
2023/05/11 03:49:18;;;;;;;3.78;1.58;;;10.70;99.90;;;9.93;100.00;101423.34;4135396;28;20054;-71
2023/05/11 03:51:20;;;;;;;2.95;2.00;;;10.70;99.90;;;9.88;100.00;101413.22;4135603;28;20065;-71
2023/05/11 03:53:21;;;;;;;5.22;2.30;;;10.70;99.90;;;9.93;100.00;101429.47;4135792;28;20046;-71
2023/05/11 03:55:22;;;;;;;5.32;2.50;;;10.70;99.90;;;9.89;100.00;101414.88;4135531;28;20468;-71
2023/05/11 03:57:26;;;;;;;6.40;1.83;;;10.70;99.90;;;9.90;100.00;101419.19;4135639;28;20018;-71
2023/05/11 03:59:27;;;;;;;7.50;1.88;;;10.70;99.90;;;9.88;100.00;101418.50;4135619;28;20027;-71
2023/05/11 04:01:29;;;;;;;7.72;1.85;;;10.60;99.90;;;9.90;100.00;101420.97;4119258;28;20033;-71
2023/05/11 04:03:30;;;;;;;3.72;1.75;;;10.60;99.90;;;9.86;100.00;101414.31;4120192;28;20023;-71
2023/05/11 04:05:31;;;;;;;8.90;1.35;;;10.60;99.90;;;9.88;100.00;101407.97;4119285;28;20042;-71
2023/05/11 04:07:32;;;;;;;7.18;1.50;;;10.60;99.90;;;9.91;100.00;101406.84;4135466;28;20038;-71
2023/05/11 04:09:33;;;;;;;5.88;1.77;;;10.60;99.90;;;9.88;100.00;101402.69;4120642;28;20134;-71
2023/05/11 04:11:37;;;;;;;5.30;2.08;;;10.60;99.90;;;9.87;100.00;101406.28;4120520;28;20545;-71
2023/05/11 04:13:38;;;;;;;5.25;1.30;;;10.60;99.90;;;9.84;100.00;101409.19;4120566;28;20487;-71
2023/05/11 04:15:39;;;;;;;5.07;1.85;;;10.60;99.90;;;9.87;100.00;101408.91;4135249;28;20092;-71
2023/05/11 04:17:40;;;;;;;4.55;1.63;;;10.60;99.90;;;9.88;100.00;101410.59;4120357;28;20015;-71
2023/05/11 04:19:41;;;;;;;5.18;1.67;;;10.60;99.90;;;9.88;100.00;101407.13;4119964;28;20101;-71
2023/05/11 04:21:42;;;;;;;8.38;1.73;;;10.60;99.90;;;9.87;100.00;101402.81;4120575;28;20027;-71
2023/05/11 04:23:43;;;;;;;8.43;1.35;;;10.60;99.90;;;9.88;100.00;101407.97;4135289;28;20034;-71
2023/05/11 04:25:43;;;;;;;8.93;2.15;;;10.60;99.90;;;9.88;100.00;101402.69;4118992;28;20497;-71
2023/05/11 04:27:44;;;;;;;5.82;1.33;;;10.60;99.90;;;9.89;100.00;101401.69;4120100;28;20035;-71
2023/05/11 04:29:45;;;;;;;5.10;1.35;;;10.60;99.90;;;9.89;100.00;101399.06;4135448;28;20073;-71
2023/05/11 04:31:46;;;;;;;7.25;1.58;;;10.60;99.90;;;9.88;100.00;101396.59;4120175;28;20039;-70
2023/05/11 04:33:47;;;;;;;4.63;1.33;;;10.60;99.90;;;9.92;100.00;101401.44;4135058;28;20026;-71
2023/05/11 04:35:53;;;;;;;8.15;1.77;;;10.60;99.90;;;9.92;100.00;101400.59;4118548;28;20050;-71
2023/05/11 04:37:54;;;;;;;8.18;1.60;;;10.70;99.90;;;9.92;100.00;101403.22;4135300;28;20027;-71
2023/05/11 04:39:56;;;;;;;7.97;1.45;;;10.60;99.90;;;9.91;100.00;101399.78;4135078;28;20030;-71
2023/05/11 04:41:59;;;;;;;4.97;1.27;;;10.60;99.90;;;9.89;100.00;101404.34;4119994;28;20023;-71
2023/05/11 04:43:59;;;;;;;4.50;1.40;;;10.60;99.90;;;9.87;100.00;101405.44;4118733;28;20438;-71
2023/05/11 04:46:00;;;;;;;4.00;2.05;;;10.60;99.90;;;9.85;100.00;101402.97;4120122;28;20037;-71
2023/05/11 04:48:01;;;;;;;10.57;1.80;;;10.60;99.90;;;9.89;100.00;101403.50;4118433;28;20034;-71
2023/05/11 04:50:03;;;;;;;5.05;1.55;;;10.60;99.90;;;9.89;100.00;101403.50;4119785;28;20042;-71
2023/05/11 04:52:04;;;;;;;7.47;1.67;;;10.60;99.90;;;9.82;100.00;101397.13;4119999;28;20034;-71
2023/05/11 04:54:05;;;;;;;8.52;2.00;;;10.60;99.90;;;9.85;100.00;101407.38;4120063;28;20542;-71
2023/05/11 04:56:06;;;;;;;4.97;1.40;;;10.60;99.90;;;9.83;100.00;101402.25;4134739;28;20031;-71
2023/05/11 04:58:07;;;;;;;5.20;1.77;;;10.50;99.90;;;9.81;100.00;101398.91;4102665;28;20616;-71
2023/05/11 05:00:08;;;;;;;5.90;1.50;;;10.60;99.90;;;9.76;100.00;101395.88;4118596;28;20022;-71
2023/05/11 05:02:09;;;;;;;7.90;2.08;;;10.50;99.90;;;9.70;100.00;101396.41;4122736;28;20054;-71
2023/05/11 05:04:10;;;;;;;4.55;1.40;;;10.50;99.90;;;9.69;100.00;101407.06;4134696;28;20371;-71
2023/05/11 05:06:11;;;;;;;5.78;1.45;;;10.40;99.90;;;9.65;100.00;101410.91;4134566;28;20026;-71
2023/05/11 05:08:12;;;;;;;4.72;1.50;;;10.40;99.90;;;9.59;100.00;101407.00;4102515;29;20039;-71
2023/05/11 05:10:13;;;;;;;6.07;1.92;;;10.40;99.90;;;9.58;100.00;101408.00;4134820;28;20035;-71
2023/05/11 05:12:14;;;;;;;9.07;1.67;;;10.30;99.90;;;9.56;100.00;101412.56;4119971;28;20038;-71
2023/05/11 05:14:15;;;;;;;7.32;1.83;;;10.30;99.90;;;9.51;100.00;101400.75;4119806;28;20030;-71
2023/05/11 05:16:16;;;;;;;5.22;1.63;;;10.30;99.90;;;9.53;100.00;101415.44;4119708;28;20030;-71
2023/05/11 05:18:16;;;;;;;6.97;2.13;;;10.30;99.90;;;9.56;100.00;101420.44;4134829;28;20406;-71
2023/05/11 05:20:17;;;;;;;5.13;2.13;;;10.30;99.90;;;9.60;100.00;101416.59;4119639;28;20031;-71
2023/05/11 05:22:18;;;;;;;6.05;1.67;;;10.30;99.90;;;9.55;100.00;101405.63;4119775;28;20073;-71
2023/05/11 05:24:19;;;;;;;9.82;3.40;;;10.30;99.90;;;9.70;100.00;101430.66;4119754;28;20411;-71
2023/05/11 05:26:20;;;;;;;3.85;1.40;;;10.40;99.90;;;9.74;100.00;101432.03;4118485;28;20069;-71
2023/05/11 05:28:21;;;;;;;7.07;1.67;;;10.40;99.90;;;9.74;100.00;101437.28;4119980;28;20026;-71
2023/05/11 05:30:22;;;;;;;6.55;1.48;;;10.40;99.90;;;9.76;100.00;101427.47;4134624;28;20042;-71
2023/05/11 05:32:23;;;;;;;7.05;2.10;;;10.50;99.90;;;9.80;100.00;101426.22;4118551;28;20058;-71
2023/05/11 05:34:24;;;;;;;5.75;1.80;;;10.50;99.90;;;9.86;100.00;101441.50;4106763;28;20023;-71
2023/05/11 05:36:25;;;;;;;7.43;2.38;;;10.50;99.90;;;9.96;100.00;101442.38;4119671;28;20031;-72
2023/05/11 05:38:26;;;;;;;6.88;1.85;;;10.60;99.90;;;10.03;100.00;101447.94;4119400;28;20490;-71
2023/05/11 05:40:28;;;;;;;7.15;1.90;;;10.70;99.90;;;10.09;100.00;101443.94;4134253;28;20026;-71
2023/05/11 05:42:29;;;;;;;6.13;1.48;;;10.70;99.90;;;10.15;100.00;101457.44;4119717;28;20035;-71
2023/05/11 05:44:30;;;;;;;5.28;1.75;;;10.80;99.90;;;10.18;100.00;101451.88;4134327;28;20056;-71
2023/05/11 05:46:30;;;;;;;7.70;1.60;;;10.80;99.90;;;10.22;100.00;101447.16;4119484;28;20039;-71
2023/05/11 05:48:31;;;;;;;6.78;2.22;;;10.90;99.90;;;10.30;100.00;101453.44;4134471;28;20065;-71
2023/05/11 05:50:32;;;;;;;9.15;2.28;;;11.00;99.90;;;10.33;100.00;101455.81;4119312;28;20030;-71
2023/05/11 05:52:33;;;;;;;6.25;1.85;;;11.00;99.90;;;10.42;100.00;101457.59;4134473;28;20214;-71
2023/05/11 05:54:34;;;;;;;5.18;1.52;;;11.10;99.90;;;10.48;100.00;101464.94;4119540;28;20483;-71
2023/05/11 05:56:35;;;;;;;6.82;1.58;;;11.20;99.90;;;10.58;100.00;101454.41;4134282;28;20057;-71
2023/05/11 05:58:36;;;;;;;10.32;1.83;;;11.20;99.90;;;10.68;100.00;101455.25;4118423;28;20030;-71
2023/05/11 06:00:37;;;;;;;7.68;1.90;;;11.30;99.90;;;10.70;100.00;101448.03;4121625;28;20031;-71
2023/05/11 06:02:38;;;;;;;6.60;1.80;;;11.40;99.90;;;10.91;100.00;101456.63;4137155;28;20504;-71
2023/05/11 06:04:39;;;;;;;7.93;2.55;;;11.50;99.90;;;10.96;100.00;101453.56;4121854;28;20030;-71
2023/05/11 06:06:40;;;;;;;9.20;1.80;;;11.60;99.90;;;11.04;100.00;101458.97;4122056;28;20105;-71
2023/05/11 06:08:42;;;;;;;7.32;2.13;;;11.60;99.90;;;11.14;100.00;101457.13;4137348;28;20048;-71
2023/05/11 06:10:43;;;;;;;6.93;1.77;;;11.70;99.90;;;11.24;100.00;101467.69;4121204;28;20026;-71
2023/05/11 06:12:44;;;;;;;11.60;2.40;;;11.80;99.90;;;11.28;100.00;101463.78;4122155;28;20035;-71
2023/05/11 06:14:45;;;;;;;10.63;2.35;;;11.90;99.90;;;11.32;100.00;101465.19;4137017;28;20026;-71
2023/05/11 06:16:45;;;;;;;12.23;1.90;;;12.00;99.90;;;11.36;100.00;101448.03;4121798;28;20085;-71
2023/05/11 06:18:47;;;;;;;5.93;1.80;;;12.00;99.90;;;11.40;100.00;101439.72;4122256;28;20034;-71
2023/05/11 06:20:47;;;;;;;4.45;1.20;;;12.10;99.90;;;11.53;100.00;101447.28;4121858;28;20042;-71
2023/05/11 06:22:48;;;;;;;8.40;2.35;;;12.20;99.90;;;11.58;100.00;101453.81;4120847;28;20053;-71
2023/05/11 06:24:49;;;;;;;11.68;2.20;;;12.20;99.90;;;11.57;100.00;101456.59;4122209;28;20031;-71
2023/05/11 06:26:50;;;;;;;8.73;1.95;;;12.30;99.90;;;11.23;100.00;101455.47;4104688;28;20110;-71
2023/05/11 06:28:51;;;;;;;10.90;1.70;;;12.20;99.90;;;11.34;100.00;101463.22;4131556;28;20038;-71
2023/05/11 06:30:58;;;;;;;11.18;2.58;;;12.10;99.90;;;11.37;100.00;101457.66;4120683;28;20029;-71
2023/05/11 06:32:58;;;;;;;13.60;2.22;;;12.10;99.90;;;11.66;100.00;101468.94;4136791;28;20034;-71
2023/05/11 06:35:00;;;;;;;9.07;2.38;;;12.20;99.90;;;11.65;100.00;101468.09;4125123;28;20026;-71
2023/05/11 06:37:01;;;;;;;5.78;1.77;;;12.30;99.90;;;11.76;100.00;101463.66;4121063;28;20031;-72
2023/05/11 06:39:03;;;;;;;5.70;2.08;;;12.40;99.90;;;11.96;100.00;101454.63;4136072;28;20065;-71
2023/05/11 06:41:05;;;;;;;6.60;2.22;;;12.50;99.90;;;12.19;100.00;101459.38;4121086;28;20030;-71
2023/05/11 06:43:05;;;;;;;4.22;1.65;;;12.60;99.90;;;12.38;100.00;101465.50;4118553;28;20023;-71
2023/05/11 06:45:08;;;;;;;7.65;2.10;;;12.80;99.90;;;12.45;100.00;101467.44;4119210;28;20097;-71
2023/05/11 06:47:08;;;;;;;15.48;2.58;;;12.90;99.90;;;12.66;100.00;101473.22;4119195;28;20051;-71
2023/05/11 06:49:09;;;;;;;6.80;1.90;;;13.10;99.90;;;12.73;100.00;101468.16;4119075;28;20077;-71
2023/05/11 06:51:11;;;;;;;9.50;1.58;;;13.20;99.90;;;12.76;100.00;101466.06;4119491;28;20027;-71
2023/05/11 06:53:12;;;;;;;9.50;2.13;;;13.30;99.90;;;12.77;100.00;101461.59;4119356;28;20414;-71
2023/05/11 06:55:13;;;;;;;9.88;2.60;;;13.30;99.90;;;12.73;100.00;101476.09;4135451;28;20049;-72
2023/05/11 06:57:14;;;;;;;7.55;1.77;;;13.40;99.90;;;12.62;100.00;101471.88;4134972;28;20022;-71
2023/05/11 06:59:15;;;;;;;10.27;3.00;;;13.40;99.90;;;12.60;100.00;101478.31;4127207;28;20027;-71
2023/05/11 07:01:16;;;;;;;7.93;2.63;;;13.30;99.90;;;12.56;100.00;101474.31;4120258;28;20046;-72
2023/05/11 07:03:16;;;;;;;8.38;2.17;;;13.30;99.90;;;12.60;100.00;101471.19;4119583;28;20023;-72
2023/05/11 07:05:18;;;;;;;8.80;2.30;;;13.30;99.90;;;12.71;100.00;101472.78;4118186;28;20070;-71
2023/05/11 07:07:18;;;;;;;12.73;2.72;;;13.40;99.90;;;12.63;100.00;101470.09;4118695;28;20027;-71
2023/05/11 07:09:19;;;;;;;8.68;2.33;;;13.40;99.90;;;12.87;100.00;101472.94;4120448;28;20478;-71
2023/05/11 07:11:20;;;;;;;8.82;2.00;;;13.40;99.90;;;13.07;100.00;101466.47;4121161;28;20033;-71
2023/05/11 07:13:21;;;;;;;9.80;3.03;;;13.60;99.90;;;13.22;100.00;101464.97;4121228;28;20022;-71
2023/05/11 07:15:23;;;;;;;10.25;1.88;;;13.70;99.90;;;13.39;100.00;101462.38;4136264;28;20038;-72
2023/05/11 07:17:24;;;;;;;8.02;1.70;;;13.90;99.90;;;13.59;100.00;101458.56;4120238;28;20041;-71
2023/05/11 07:19:25;;;;;;;5.38;1.33;;;14.00;99.90;;;13.86;100.00;101459.16;4136023;28;20510;-71
2023/05/11 07:21:26;;;;;;;4.63;1.50;;;14.30;99.90;;;14.07;100.00;101458.72;4119862;28;20043;-71
2023/05/11 07:23:27;;;;;;;12.88;2.25;;;14.50;99.90;;;14.26;100.00;101466.44;4136195;28;20097;-71
2023/05/11 07:25:28;;;;;;;8.73;1.90;;;14.70;99.90;;;14.13;100.00;101457.25;4121195;28;20026;-71
2023/05/11 07:27:30;;;;;;;11.40;2.95;;;14.80;99.90;;;14.17;100.00;101464.75;4121148;28;20031;-71
2023/05/11 07:29:31;;;;;;;11.20;2.72;;;14.80;99.90;;;14.08;100.00;101471.00;4121197;28;20043;-71
2023/05/11 07:31:32;;;;;;;10.35;3.45;;;14.70;99.90;;;13.86;100.00;101464.47;4121123;28;20403;-71
2023/05/11 07:33:35;;;;;;;5.80;1.58;;;14.60;99.90;;;14.19;100.00;101462.75;4121091;28;20031;-71
2023/05/11 07:35:36;;;;;;;11.33;2.80;;;14.70;99.90;;;14.37;100.00;101466.16;4135446;28;20105;-71
2023/05/11 07:37:37;;;;;;;12.05;3.42;;;14.90;99.90;;;14.36;100.00;101459.19;4121238;28;20320;-71
2023/05/11 07:39:38;;;;;;;9.73;2.20;;;14.90;99.90;;;14.55;100.00;101462.50;4135999;28;20026;-71
2023/05/11 07:41:39;;;;;;;10.77;2.80;;;15.00;99.90;;;14.56;100.00;101454.41;4119846;28;20030;-71
2023/05/11 07:43:40;;;;;;;7.70;2.10;;;15.10;99.90;;;14.76;100.00;101462.88;4120899;28;20037;-71
2023/05/11 07:45:41;;;;;;;11.52;3.20;;;15.10;99.90;;;14.85;100.00;101464.53;4120598;28;20043;-71
2023/05/11 07:47:42;;;;;;;5.35;1.95;;;15.20;99.90;;;15.05;100.00;101459.72;4121033;28;20034;-71
2023/05/11 07:49:43;;;;;;;9.60;2.30;;;15.30;99.90;;;14.95;100.00;101460.72;4120559;28;20031;-71
2023/05/11 07:51:44;;;;;;;10.40;2.75;;;15.40;99.90;;;14.91;100.00;101467.34;4135552;28;20042;-71
2023/05/11 07:53:45;;;;;;;11.95;2.95;;;15.40;99.90;;;15.01;100.00;101458.38;4119513;28;20026;-71
2023/05/11 07:55:46;;;;;;;9.27;2.35;;;15.40;99.90;;;15.00;100.00;101462.88;4120822;28;20077;-71
2023/05/11 07:57:46;;;;;;;9.48;1.98;;;15.50;99.90;;;15.23;100.00;101463.84;4120848;28;20096;-71
2023/05/11 07:59:48;;;;;;;16.38;3.22;;;15.50;99.90;;;15.57;100.00;101458.31;4135491;28;20030;-71
2023/05/11 08:01:48;;;;;;;8.32;2.33;;;15.70;99.90;;;15.83;100.00;101461.53;4119457;28;20058;-71
2023/05/11 08:03:50;;;;;;;6.30;2.10;;;16.00;99.90;;;15.97;100.00;101446.69;4120419;28;20479;-71
2023/05/11 08:05:50;;;;;;;12.63;1.92;;;16.30;99.90;;;16.08;100.00;101456.09;4120389;28;20030;-71
2023/05/11 08:07:51;;;;;;;10.07;2.33;;;16.50;99.90;;;15.66;100.00;101453.78;4119316;28;20086;-71
2023/05/11 08:09:52;;;;;;;10.05;2.17;;;16.40;99.90;;;15.59;100.00;101452.84;4118798;28;20033;-71
2023/05/11 08:11:55;;;;;;;9.75;2.47;;;16.30;99.90;;;15.72;100.00;101445.13;4119029;28;20039;-71
2023/05/11 08:13:56;;;;;;;12.05;2.90;;;16.20;99.90;;;15.95;100.00;101459.31;4119168;28;20029;-71
2023/05/11 08:15:57;;;;;;;6.78;2.28;;;16.20;99.90;;;16.10;100.00;101451.47;4120546;28;20478;-71
2023/05/11 08:17:58;;;;;;;9.50;2.00;;;16.30;99.90;;;16.24;100.00;101448.88;4135186;28;20019;-71
2023/05/11 08:19:59;;;;;;;6.05;1.75;;;16.40;99.90;;;16.32;100.00;101451.47;4119061;28;20034;-71
2023/05/11 08:22:00;;;;;;;7.85;2.55;;;16.60;99.90;;;16.31;98.67;101449.81;4120208;28;20022;-71
2023/05/11 08:24:01;;;;;;;8.43;1.77;;;16.60;99.90;;;16.16;93.77;101454.22;4134966;28;20030;-72
2023/05/11 08:26:02;;;;;;;10.90;2.17;;;16.70;99.90;;;16.33;92.66;101453.16;4124571;28;20076;-71
2023/05/11 08:28:03;;;;;;;5.50;1.92;;;16.70;99.90;;;16.39;92.66;101452.44;4119016;28;20070;-72